createdAt,value
2022-11-17T00:00:43.104Z,8.10
2022-11-17T00:03:14.635Z,8.17
2022-11-17T00:05:42.671Z,9.90
2022-11-17T00:08:10.728Z,9.20
2022-11-17T00:10:38.836Z,8.77
2022-11-17T00:13:23.364Z,8.77
2022-11-17T00:15:52.827Z,9.57
2022-11-17T00:18:38.367Z,8.77
2022-11-17T00:21:23.647Z,9.20
2022-11-17T00:23:51.828Z,9.30
2022-11-17T00:26:21.476Z,9.07
2022-11-17T00:28:52.533Z,9.90
2022-11-17T00:31:40.574Z,10.00
2022-11-17T00:34:12.114Z,10.00
2022-11-17T00:36:42.942Z,9.97
2022-11-17T00:39:12.581Z,10.40
2022-11-17T00:41:41.010Z,10.07
2022-11-17T00:44:09.724Z,10.13
2022-11-17T00:46:39.952Z,10.00
2022-11-17T00:49:09.004Z,10.07
2022-11-17T00:51:38.037Z,10.13
2022-11-17T00:54:07.268Z,11.00
2022-11-17T00:56:35.382Z,11.00
2022-11-17T00:59:03.650Z,11.80
2022-11-17T01:01:32.426Z,11.20
2022-11-17T01:04:04.123Z,11.30
2022-11-17T01:06:35.085Z,11.60
2022-11-17T01:09:04.017Z,10.97
2022-11-17T01:11:32.049Z,10.63
2022-11-17T01:14:01.620Z,10.60
2022-11-17T01:16:30.839Z,10.87
2022-11-17T01:19:02.193Z,10.97
2022-11-17T01:21:31.393Z,11.50
2022-11-17T01:24:01.368Z,10.07
2022-11-17T01:26:31.335Z,10.27
2022-11-17T01:29:00.121Z,9.57
2022-11-17T01:31:30.200Z,9.87
2022-11-17T01:33:58.818Z,10.00
2022-11-17T01:36:30.289Z,9.10
2022-11-17T01:38:58.471Z,9.00
2022-11-17T01:41:28.845Z,8.60
2022-11-17T01:43:58.708Z,7.33
2022-11-17T01:46:33.310Z,7.93
2022-11-17T01:49:06.415Z,7.10
2022-11-17T01:51:39.169Z,7.33
2022-11-17T01:54:08.713Z,6.90
2022-11-17T01:56:40.109Z,6.73
2022-11-17T01:59:15.415Z,7.17
2022-11-17T02:01:55.741Z,6.90
2022-11-17T02:04:27.026Z,6.57
2022-11-17T02:07:02.052Z,7.83
2022-11-17T02:09:30.571Z,6.60
2022-11-17T02:12:00.082Z,6.30
2022-11-17T02:14:28.153Z,6.23
2022-11-17T02:16:56.354Z,6.40
2022-11-17T02:19:27.622Z,5.70
2022-11-17T02:22:33.758Z,5.73
2022-11-17T02:25:30.881Z,5.43
2022-11-17T02:28:16.333Z,5.73
2022-11-17T02:30:54.878Z,5.50
2022-11-17T02:33:30.965Z,5.37
2022-11-17T02:36:04.804Z,5.40
2022-11-17T02:38:38.848Z,5.40
2022-11-17T02:41:13.444Z,5.17
2022-11-17T02:44:04.135Z,5.47
2022-11-17T02:46:40.180Z,5.37
2022-11-17T02:49:17.004Z,5.10
2022-11-17T02:51:46.585Z,5.33
2022-11-17T02:54:14.839Z,4.73
2022-11-17T02:56:43.792Z,6.07
2022-11-17T02:59:14.781Z,5.30
2022-11-17T03:02:30.942Z,4.40
2022-11-17T03:05:08.656Z,5.60
2022-11-17T03:07:49.553Z,6.70
2022-11-17T03:10:24.589Z,6.27
2022-11-17T03:13:00.945Z,6.50
2022-11-17T03:15:40.068Z,6.73
2022-11-17T03:18:15.873Z,7.07
2022-11-17T03:23:38.165Z,6.97
2022-11-17T03:26:11.059Z,7.00
2022-11-17T03:28:40.309Z,6.17
2022-11-17T03:31:09.429Z,7.30
2022-11-17T03:33:39.683Z,8.27
2022-11-17T03:36:11.980Z,8.10
2022-11-17T03:38:47.354Z,7.67
2022-11-17T03:41:16.977Z,7.10
2022-11-17T03:43:49.545Z,8.30
2022-11-17T03:46:20.016Z,7.80
2022-11-17T03:48:51.650Z,7.80
2022-11-17T03:51:22.338Z,7.93
2022-11-17T03:53:53.537Z,8.20
2022-11-17T03:56:32.142Z,8.40
2022-11-17T03:59:04.253Z,9.00
2022-11-17T04:01:34.585Z,8.33
2022-11-17T04:04:02.710Z,9.00
2022-11-17T04:06:30.790Z,9.43
2022-11-17T04:09:00.298Z,11.50
2022-11-17T04:11:45.855Z,10.40
2022-11-17T04:14:31.210Z,9.30
2022-11-17T04:16:59.252Z,9.53
2022-11-17T04:19:27.278Z,9.70
2022-11-17T04:21:55.460Z,10.50
2022-11-17T04:24:24.857Z,13.13
2022-11-17T04:27:10.113Z,10.07
2022-11-17T04:29:38.131Z,10.17
2022-11-17T04:32:06.409Z,10.37
2022-11-17T04:34:34.519Z,9.33
2022-11-17T04:37:07.994Z,9.90
2022-11-17T04:39:39.957Z,11.33
2022-11-17T04:42:06.989Z,10.70
2022-11-17T04:44:35.026Z,10.23
2022-11-17T04:47:04.192Z,11.00
2022-11-17T04:49:33.406Z,10.43
2022-11-17T04:52:01.780Z,10.50
2022-11-17T04:54:29.997Z,10.77
2022-11-17T04:56:59.498Z,10.40
2022-11-17T04:59:27.560Z,10.37
2022-11-17T05:01:57.005Z,11.70
2022-11-17T05:04:44.090Z,11.50
2022-11-17T05:07:12.173Z,10.47
2022-11-17T05:09:40.222Z,12.20
2022-11-17T05:12:27.762Z,11.87
2022-11-17T05:14:55.773Z,11.47
2022-11-17T05:17:27.059Z,11.90
2022-11-17T05:19:55.322Z,11.30
2022-11-17T05:22:42.174Z,11.93
2022-11-17T05:25:11.167Z,11.30
2022-11-17T05:27:40.651Z,11.10
2022-11-17T05:30:10.447Z,11.70
2022-11-17T05:32:38.477Z,10.73
2022-11-17T05:35:07.545Z,11.10
2022-11-17T05:37:38.452Z,11.73
2022-11-17T05:40:07.840Z,11.70
2022-11-17T05:42:35.912Z,10.80
2022-11-17T05:45:05.873Z,12.67
2022-11-17T05:47:33.950Z,11.40
2022-11-17T05:50:02.080Z,11.10
2022-11-17T05:52:30.122Z,10.43
2022-11-17T05:54:58.228Z,11.30
2022-11-17T05:57:32.051Z,12.17
2022-11-17T06:00:04.543Z,11.80
2022-11-17T06:02:45.466Z,12.33
2022-11-17T06:05:19.962Z,12.20
2022-11-17T06:07:48.663Z,13.23
2022-11-17T06:10:16.859Z,13.80
2022-11-17T06:12:44.959Z,11.33
2022-11-17T06:15:16.230Z,13.07
2022-11-17T06:17:49.952Z,13.63
2022-11-17T06:20:22.217Z,13.23
2022-11-17T06:22:51.323Z,14.67
2022-11-17T06:25:20.761Z,14.17
2022-11-17T06:27:50.499Z,14.30
2022-11-17T06:30:19.480Z,13.90
2022-11-17T06:32:49.991Z,13.93
2022-11-17T06:35:18.880Z,13.40
2022-11-17T06:37:46.921Z,15.70
2022-11-17T06:40:15.048Z,15.53
2022-11-17T06:43:00.575Z,14.47
2022-11-17T06:45:28.675Z,16.10
2022-11-17T06:47:58.112Z,18.27
2022-11-17T06:50:26.417Z,18.27
2022-11-17T06:52:58.402Z,16.07
2022-11-17T06:55:26.826Z,16.30
2022-11-17T06:58:00.403Z,17.50
2022-11-17T07:00:30.960Z,18.03
2022-11-17T07:03:04.639Z,18.60
2022-11-17T07:05:33.600Z,17.90
2022-11-17T07:08:03.222Z,18.00
2022-11-17T07:10:32.287Z,17.40
2022-11-17T07:13:00.486Z,18.60
2022-11-17T07:15:28.647Z,17.20
2022-11-17T07:17:56.755Z,18.30
2022-11-17T07:20:26.232Z,18.70
2022-11-17T07:23:00.048Z,17.80
2022-11-17T07:25:28.180Z,19.83
2022-11-17T07:28:00.312Z,19.93
2022-11-17T07:30:28.559Z,20.87
2022-11-17T07:32:56.615Z,19.50
2022-11-17T07:35:26.167Z,19.87
2022-11-17T07:37:58.450Z,18.50
2022-11-17T07:40:26.865Z,19.43
2022-11-17T07:42:55.132Z,20.13
2022-11-17T07:45:25.119Z,18.80
2022-11-17T07:47:57.217Z,18.50
2022-11-17T07:50:28.027Z,18.23
2022-11-17T07:52:57.784Z,17.90
2022-11-17T07:55:26.898Z,17.77
2022-11-17T07:57:59.257Z,16.47
2022-11-17T08:00:28.030Z,19.90
2022-11-17T08:02:56.269Z,19.03
2022-11-17T08:05:24.822Z,18.63
2022-11-17T08:07:58.092Z,18.10
2022-11-17T08:10:27.050Z,18.20
2022-11-17T08:12:55.970Z,18.33
2022-11-17T08:15:24.068Z,19.03
2022-11-17T08:17:54.484Z,17.70
2022-11-17T08:20:23.425Z,15.37
2022-11-17T08:22:52.874Z,17.13
2022-11-17T08:25:23.710Z,18.63
2022-11-17T08:27:55.175Z,18.17
2022-11-17T08:30:23.745Z,19.23
2022-11-17T08:32:53.752Z,17.47
2022-11-17T08:35:23.884Z,15.60
2022-11-17T08:37:52.658Z,17.37
2022-11-17T08:40:22.696Z,15.73
2022-11-17T08:43:00.335Z,16.67
2022-11-17T08:45:29.036Z,18.37
2022-11-17T08:47:57.860Z,18.10
2022-11-17T08:50:26.406Z,18.27
2022-11-17T08:52:54.993Z,18.30
2022-11-17T08:55:26.270Z,17.10
2022-11-17T08:57:54.752Z,17.23
2022-11-17T09:00:23.237Z,16.73
2022-11-17T09:02:51.822Z,17.60
2022-11-17T09:05:21.016Z,17.73
2022-11-17T09:07:49.267Z,17.10
2022-11-17T09:10:17.718Z,17.60
2022-11-17T09:12:47.198Z,18.17
2022-11-17T09:15:15.277Z,17.90
2022-11-17T09:17:47.757Z,14.57
2022-11-17T09:20:16.532Z,14.70
2022-11-17T09:22:44.669Z,15.80
2022-11-17T09:25:13.643Z,16.33
2022-11-17T09:27:42.110Z,16.17
2022-11-17T09:30:12.502Z,16.17
2022-11-17T09:32:40.589Z,16.17
2022-11-17T09:35:09.341Z,15.00
2022-11-17T09:37:37.438Z,17.13
2022-11-17T09:40:06.213Z,15.50
2022-11-17T09:42:39.775Z,15.73
2022-11-17T09:45:14.694Z,14.87
2022-11-17T09:47:47.082Z,15.57
2022-11-17T09:50:22.329Z,14.67
2022-11-17T09:52:59.489Z,14.10
2022-11-17T09:55:34.493Z,14.40
2022-11-17T09:58:12.569Z,14.00
2022-11-17T10:00:44.633Z,13.00
2022-11-17T10:03:20.149Z,13.67
2022-11-17T10:05:49.086Z,14.40
2022-11-17T10:08:20.292Z,14.07
2022-11-17T10:10:50.524Z,12.50
2022-11-17T10:13:26.197Z,14.80
2022-11-17T10:15:59.747Z,15.13
2022-11-17T10:18:35.024Z,12.53
2022-11-17T10:21:07.656Z,13.40
2022-11-17T10:23:42.740Z,14.00
2022-11-17T10:26:16.121Z,11.33
2022-11-17T10:28:44.612Z,12.50
2022-11-17T10:31:15.851Z,12.80
2022-11-17T10:33:46.861Z,11.90
2022-11-17T10:36:21.029Z,12.30
2022-11-17T10:38:51.157Z,13.40
2022-11-17T10:41:22.662Z,12.20
2022-11-17T10:43:58.590Z,13.90
2022-11-17T10:46:36.749Z,12.80
2022-11-17T10:49:25.735Z,15.37
2022-11-17T10:52:06.873Z,12.50
2022-11-17T10:54:34.973Z,12.70
2022-11-17T10:57:06.892Z,12.33
2022-11-17T10:59:44.941Z,11.90
2022-11-17T11:02:29.424Z,12.50
2022-11-17T11:05:08.786Z,12.13
2022-11-17T11:07:38.042Z,12.43
2022-11-17T11:10:13.953Z,11.83
2022-11-17T11:12:46.734Z,12.00
2022-11-17T11:15:20.177Z,11.13
2022-11-17T11:17:49.951Z,11.70
2022-11-17T11:20:22.045Z,10.80
2022-11-17T11:22:58.218Z,12.00
2022-11-17T11:25:35.037Z,10.90
2022-11-17T11:28:18.865Z,10.60
2022-11-17T11:30:58.070Z,10.90
2022-11-17T11:33:35.418Z,11.03
2022-11-17T11:36:20.592Z,10.50
2022-11-17T11:39:01.057Z,10.63
2022-11-17T11:41:51.194Z,9.77
2022-11-17T11:44:39.726Z,9.53
2022-11-17T11:47:19.935Z,10.53
2022-11-17T11:49:54.776Z,10.00
2022-11-17T11:52:26.821Z,9.53
2022-11-17T11:55:00.215Z,8.43
2022-11-17T11:57:34.655Z,10.67
2022-11-17T12:00:05.977Z,9.93
2022-11-17T12:02:43.751Z,9.13
2022-11-17T12:05:24.800Z,8.57
2022-11-17T12:07:59.642Z,8.90
2022-11-17T12:10:32.870Z,9.60
2022-11-17T12:13:02.042Z,8.30
2022-11-17T12:15:35.611Z,8.20
2022-11-17T12:18:06.982Z,8.50
2022-11-17T12:20:56.473Z,8.33
2022-11-17T12:23:37.351Z,7.60
2022-11-17T12:26:05.946Z,7.77
2022-11-17T12:28:36.805Z,7.90
2022-11-17T12:31:10.143Z,8.07
2022-11-17T12:34:22.788Z,7.57
2022-11-17T12:37:19.817Z,7.97
2022-11-17T12:39:57.632Z,7.23
2022-11-17T12:42:26.051Z,6.80
2022-11-17T12:45:00.156Z,7.10
2022-11-17T12:47:30.218Z,7.43
2022-11-17T12:50:23.398Z,9.27
2022-11-17T12:53:26.081Z,7.43
2022-11-17T12:56:32.490Z,7.50
2022-11-17T12:59:20.073Z,7.77
2022-11-17T13:01:55.165Z,6.23
2022-11-17T13:04:32.198Z,9.07
2022-11-17T13:07:02.172Z,7.13
2022-11-17T13:09:33.452Z,6.57
2022-11-17T13:12:04.115Z,6.60
2022-11-17T13:14:32.702Z,6.80
2022-11-17T13:17:01.671Z,6.07
2022-11-17T13:19:36.317Z,6.60
2022-11-17T13:22:06.998Z,5.67
2022-11-17T13:24:38.359Z,11.03
2022-11-17T13:27:08.433Z,7.47
2022-11-17T13:29:36.703Z,7.00
2022-11-17T13:32:16.887Z,7.53
2022-11-17T13:34:53.858Z,6.73
2022-11-17T13:37:24.512Z,6.20
2022-11-17T13:39:59.453Z,7.20
2022-11-17T13:42:30.814Z,8.20
2022-11-17T13:45:01.753Z,6.90
2022-11-17T13:47:46.519Z,6.33
2022-11-17T13:50:35.288Z,4.83
2022-11-17T13:53:06.503Z,7.50
2022-11-17T13:55:36.728Z,7.13
2022-11-17T13:58:07.825Z,6.80
2022-11-17T14:00:35.975Z,6.53
2022-11-17T14:03:06.293Z,7.27
2022-11-17T14:05:35.202Z,7.30
2022-11-17T14:08:13.997Z,7.27
2022-11-17T14:10:43.913Z,7.77
2022-11-17T14:13:24.421Z,8.20
2022-11-17T14:15:56.839Z,8.47
2022-11-17T14:18:29.857Z,8.53
2022-11-17T14:21:13.727Z,8.03
2022-11-17T14:23:43.176Z,7.47
2022-11-17T14:26:24.503Z,7.40
2022-11-17T14:28:54.025Z,8.17
2022-11-17T14:31:22.122Z,7.90
2022-11-17T14:33:50.777Z,8.07
2022-11-17T14:36:19.362Z,7.63
2022-11-17T14:38:47.917Z,7.03
2022-11-17T14:41:19.459Z,7.90
2022-11-17T14:43:49.389Z,7.43
2022-11-17T14:46:20.562Z,7.33
2022-11-17T14:48:48.725Z,7.30
2022-11-17T14:51:17.098Z,6.60
2022-11-17T14:53:45.960Z,7.00
2022-11-17T14:56:16.323Z,7.07
2022-11-17T14:58:44.662Z,7.50
2022-11-17T15:01:17.784Z,6.43
2022-11-17T15:03:46.470Z,8.23
2022-11-17T15:06:19.989Z,8.40
2022-11-17T15:08:49.058Z,7.77
2022-11-17T15:11:18.993Z,6.53
2022-11-17T15:13:47.134Z,7.00
2022-11-17T15:16:16.592Z,7.17
2022-11-17T15:18:46.576Z,6.20
2022-11-17T15:21:16.510Z,7.70
2022-11-17T15:23:45.407Z,7.00
2022-11-17T15:26:16.198Z,6.27
2022-11-17T15:28:46.190Z,6.80
2022-11-17T15:31:17.288Z,6.27
2022-11-17T15:33:47.041Z,6.77
2022-11-17T15:36:17.666Z,9.03
2022-11-17T15:38:46.062Z,8.37
2022-11-17T15:41:15.073Z,8.10
2022-11-17T15:43:44.896Z,7.23
2022-11-17T15:46:14.564Z,7.63
2022-11-17T15:48:45.571Z,7.43
2022-11-17T15:51:15.771Z,7.50
2022-11-17T15:53:46.323Z,7.47
2022-11-17T15:56:17.314Z,8.20
2022-11-17T15:58:46.037Z,7.27
2022-11-17T16:01:15.857Z,7.50
2022-11-17T16:03:46.427Z,7.20
2022-11-17T16:06:14.505Z,7.50
2022-11-17T16:08:42.519Z,7.80
2022-11-17T16:11:12.092Z,8.43
2022-11-17T16:13:40.352Z,10.00
2022-11-17T16:16:09.434Z,9.27
2022-11-17T16:18:38.616Z,7.33
2022-11-17T16:21:10.898Z,8.63
2022-11-17T16:23:40.135Z,9.30
2022-11-17T16:26:08.462Z,8.10
2022-11-17T16:28:36.524Z,9.17
2022-11-17T16:31:14.748Z,7.93
2022-11-17T16:33:47.524Z,9.00
2022-11-17T16:36:17.251Z,8.50
2022-11-17T16:39:02.100Z,8.13
2022-11-17T16:41:32.771Z,8.63
2022-11-17T16:44:01.049Z,8.20
2022-11-17T16:46:31.030Z,8.00
2022-11-17T16:49:02.658Z,8.93
2022-11-17T16:51:32.450Z,8.37
2022-11-17T16:54:02.896Z,8.60
2022-11-17T16:56:31.424Z,8.33
2022-11-17T16:58:59.792Z,9.07
2022-11-17T17:01:30.298Z,7.20
2022-11-17T17:04:00.025Z,8.20
2022-11-17T17:06:28.840Z,11.47
2022-11-17T17:08:59.933Z,8.80
2022-11-17T17:11:29.282Z,8.70
2022-11-17T17:13:57.575Z,8.73
2022-11-17T17:16:26.157Z,8.70
2022-11-17T17:18:59.412Z,8.77
2022-11-17T17:21:29.281Z,9.03
2022-11-17T17:23:58.946Z,9.60
2022-11-17T17:26:29.353Z,8.83
2022-11-17T17:28:59.236Z,9.53
2022-11-17T17:31:31.194Z,9.80
2022-11-17T17:33:59.951Z,9.83
2022-11-17T17:36:28.806Z,9.90
2022-11-17T17:39:01.812Z,10.60
2022-11-17T17:41:31.994Z,10.73
2022-11-17T17:44:01.966Z,10.27
2022-11-17T17:46:31.184Z,9.97
2022-11-17T17:48:59.695Z,10.10
2022-11-17T17:51:29.594Z,9.87
2022-11-17T17:54:00.979Z,9.40
2022-11-17T17:56:30.405Z,11.70
2022-11-17T17:58:59.200Z,10.10
2022-11-17T18:01:28.926Z,10.40
2022-11-17T18:04:01.431Z,10.60
2022-11-17T18:06:29.857Z,9.50
2022-11-17T18:09:00.050Z,11.40
2022-11-17T18:11:28.180Z,11.20
2022-11-17T18:13:56.364Z,11.17
2022-11-17T18:16:27.178Z,11.03
2022-11-17T18:18:58.773Z,10.67
2022-11-17T18:21:28.556Z,10.80
2022-11-17T18:24:00.746Z,10.33
2022-11-17T18:26:30.404Z,10.17
2022-11-17T18:28:59.791Z,9.93
2022-11-17T18:31:29.931Z,10.63
2022-11-17T18:33:59.688Z,11.10
2022-11-17T18:36:28.381Z,9.23
2022-11-17T18:38:58.492Z,10.50
2022-11-17T18:41:30.807Z,10.27
2022-11-17T18:43:59.334Z,10.50
2022-11-17T18:46:29.966Z,10.63
2022-11-17T18:48:58.577Z,10.20
2022-11-17T18:51:28.205Z,11.70
2022-11-17T18:53:58.106Z,10.87
2022-11-17T18:56:29.252Z,10.63
2022-11-17T18:58:57.627Z,11.17
2022-11-17T19:01:27.925Z,10.27
2022-11-17T19:03:57.477Z,10.00
2022-11-17T19:06:26.404Z,11.50
2022-11-17T19:08:54.893Z,10.83
2022-11-17T19:11:24.061Z,11.67
2022-11-17T19:13:53.490Z,9.77
2022-11-17T19:16:23.802Z,10.40
2022-11-17T19:18:54.388Z,10.00
2022-11-17T19:21:25.661Z,11.10
2022-11-17T19:23:55.328Z,12.43
2022-11-17T19:26:25.611Z,11.53
2022-11-17T19:28:58.089Z,11.27
2022-11-17T19:31:26.381Z,11.67
2022-11-17T19:33:55.287Z,11.50
2022-11-17T19:36:26.019Z,11.30
2022-11-17T19:38:55.887Z,10.90
2022-11-17T19:41:26.327Z,12.67
2022-11-17T19:43:56.343Z,11.00
2022-11-17T19:46:26.137Z,12.40
2022-11-17T19:48:54.601Z,11.77
2022-11-17T19:51:24.886Z,12.00
2022-11-17T19:53:55.561Z,11.27
2022-11-17T19:56:25.364Z,12.00
2022-11-17T19:58:53.981Z,14.30
2022-11-17T20:01:25.098Z,10.27
2022-11-17T20:03:53.934Z,10.00
2022-11-17T20:06:23.658Z,11.20
2022-11-17T20:08:51.749Z,10.90
2022-11-17T20:11:21.938Z,10.73
2022-11-17T20:13:50.114Z,10.57
2022-11-17T20:16:20.167Z,10.30
2022-11-17T20:18:52.460Z,10.13
2022-11-17T20:21:20.908Z,10.80
2022-11-17T20:23:49.427Z,10.93
2022-11-17T20:26:19.168Z,9.80
2022-11-17T20:28:48.184Z,13.93
2022-11-17T20:31:19.154Z,10.13
2022-11-17T20:33:48.074Z,10.50
2022-11-17T20:36:19.151Z,9.80
2022-11-17T20:38:51.596Z,10.97
2022-11-17T20:41:21.097Z,9.77
2022-11-17T20:43:50.233Z,9.43
2022-11-17T20:46:18.604Z,9.90
2022-11-17T20:48:47.018Z,9.27
2022-11-17T20:51:18.185Z,9.07
2022-11-17T20:53:46.559Z,10.10
2022-11-17T20:56:16.084Z,9.03
2022-11-17T20:58:44.692Z,8.90
2022-11-17T21:01:14.806Z,9.57
2022-11-17T21:03:43.538Z,8.90
2022-11-17T21:06:12.288Z,9.07
2022-11-17T21:08:43.311Z,9.27
2022-11-17T21:11:33.301Z,9.60
2022-11-17T21:14:01.959Z,8.80
2022-11-17T21:16:30.500Z,8.30
2022-11-17T21:18:58.641Z,9.03
2022-11-17T21:21:26.912Z,9.33
2022-11-17T21:23:56.639Z,9.23
2022-11-17T21:26:25.150Z,9.53
2022-11-17T21:28:53.578Z,9.80
2022-11-17T21:31:24.579Z,9.10
2022-11-17T21:33:54.750Z,8.70
2022-11-17T21:36:24.141Z,8.20
2022-11-17T21:38:52.449Z,8.90
2022-11-17T21:41:23.210Z,8.33
2022-11-17T21:43:52.531Z,9.87
2022-11-17T21:46:21.934Z,9.33
2022-11-17T21:48:50.846Z,10.33
2022-11-17T21:51:20.704Z,9.10
2022-11-17T21:53:52.587Z,9.33
2022-11-17T21:56:25.550Z,9.20
2022-11-17T21:58:58.355Z,8.40
2022-11-17T22:01:27.227Z,9.57
2022-11-17T22:03:55.762Z,9.43
2022-11-17T22:06:25.737Z,9.17
2022-11-17T22:08:55.564Z,9.90
2022-11-17T22:11:39.026Z,11.90
2022-11-17T22:14:10.163Z,11.93
2022-11-17T22:16:40.381Z,10.23
2022-11-17T22:19:09.772Z,11.37
2022-11-17T22:21:38.894Z,8.63
2022-11-17T22:24:09.418Z,9.70
2022-11-17T22:26:41.076Z,9.53
2022-11-17T22:29:12.345Z,10.00
2022-11-17T22:31:40.494Z,10.73
2022-11-17T22:34:09.036Z,9.80
2022-11-17T22:36:37.147Z,9.60
2022-11-17T22:39:06.159Z,10.40
2022-11-17T22:41:34.948Z,10.20
2022-11-17T22:44:05.100Z,10.40
2022-11-17T22:46:33.369Z,11.00
2022-11-17T22:49:01.510Z,11.00
2022-11-17T22:51:47.177Z,10.70
2022-11-17T22:54:15.284Z,10.00
2022-11-17T22:56:43.356Z,11.60
2022-11-17T22:59:12.966Z,10.77
2022-11-17T23:01:41.078Z,11.93
2022-11-17T23:04:09.171Z,10.73
2022-11-17T23:06:37.303Z,11.80
2022-11-17T23:09:05.524Z,11.47
2022-11-17T23:11:38.182Z,11.03
2022-11-17T23:14:07.158Z,10.73
2022-11-17T23:16:36.717Z,12.30
2022-11-17T23:19:05.339Z,12.07
2022-11-17T23:21:33.859Z,11.53
2022-11-17T23:24:02.108Z,10.80
2022-11-17T23:26:30.146Z,10.83
2022-11-17T23:28:58.245Z,11.80
2022-11-17T23:31:27.801Z,11.47
2022-11-17T23:33:57.363Z,11.53
2022-11-17T23:36:25.780Z,12.40
2022-11-17T23:38:56.280Z,11.33
2022-11-17T23:41:24.498Z,10.70
2022-11-17T23:43:54.071Z,13.07
2022-11-17T23:46:24.441Z,12.70
2022-11-17T23:48:53.281Z,12.70
2022-11-17T23:51:24.338Z,13.03
2022-11-17T23:53:52.907Z,12.73
2022-11-17T23:56:21.592Z,13.63
2022-11-17T23:58:49.735Z,13.83
